Time;durP1;ratioP1;P1;durP2;ratioP2;P2;SDS_P1;SDS_P2;PMS_P1;PMS_P2;Temp;Humidity;BMP_temperature;BMP_pressure;BME280_temperature;BME280_humidity;BME280_pressure;Samples;Min_cycle;Max_cycle;Signal;HPM_P1;HPM_P2
2023/12/03 00:01:48;;;;;;;49.25;23.83;;;;;;;-0.71;100.00;101920.34;5059382;28;20126;-74
2023/12/03 00:04:14;;;;;;;53.13;26.10;;;;;;;-0.68;100.00;101918.75;5094375;28;20112;-74
2023/12/03 00:06:40;;;;;;;50.20;25.48;;;;;;;-0.66;100.00;101916.22;5093984;28;20055;-74
2023/12/03 00:09:06;;;;;;;49.17;22.40;;;;;;;-0.65;100.00;101905.88;5056753;28;20123;-74
2023/12/03 00:11:31;;;;;;;54.45;25.55;;;;;;;-0.59;100.00;101909.53;5096947;28;20111;-74
2023/12/03 00:13:57;;;;;;;51.70;25.92;;;;;;;-0.59;100.00;101909.53;5080984;28;20039;-74
2023/12/03 00:16:22;;;;;;;44.60;23.95;;;;;;;-0.54;100.00;101921.06;5076273;28;20040;-74
2023/12/03 00:18:48;;;;;;;44.20;24.70;;;;;;;-0.51;100.00;101919.44;5094259;28;20091;-74
2023/12/03 00:21:13;;;;;;;48.03;22.42;;;;;;;-0.49;100.00;101912.59;5093998;28;20046;-74
2023/12/03 00:23:39;;;;;;;34.65;19.55;;;;;;;-0.46;100.00;101920.50;5083692;28;20134;-74
2023/12/03 00:26:05;;;;;;;43.95;22.33;;;;;;;-0.40;100.00;101921.59;5080126;28;20427;-74
2023/12/03 00:28:30;;;;;;;53.08;25.17;;;;;;;-0.39;100.00;101929.47;5094103;28;20126;-74
2023/12/03 00:30:56;;;;;;;50.88;24.25;;;;;;;-0.37;100.00;101929.50;5075566;28;20051;-75
2023/12/03 00:33:21;;;;;;;43.50;21.85;;;;;;;-0.35;100.00;101917.44;5093827;28;20022;-74
2023/12/03 00:35:47;;;;;;;39.20;21.85;;;;;;;-0.33;100.00;101921.88;5075612;28;20125;-74
2023/12/03 00:38:12;;;;;;;43.83;25.10;;;;;;;-0.30;100.00;101915.91;5043561;28;20043;-74
2023/12/03 00:40:39;;;;;;;42.88;20.63;;;;;;;-0.30;100.00;101919.41;5093721;28;20379;-74
2023/12/03 00:43:05;;;;;;;43.85;21.40;;;;;;;-0.27;100.00;101922.16;5075507;28;20036;-73
2023/12/03 00:45:30;;;;;;;43.70;20.67;;;;;;;-0.23;100.00;101917.94;5082134;28;20050;-74
2023/12/03 00:47:56;;;;;;;42.15;21.25;;;;;;;-0.21;100.00;101924.09;5075504;28;20043;-74
2023/12/03 00:50:22;;;;;;;44.05;20.85;;;;;;;-0.19;100.00;101916.38;5093590;28;20074;-73
2023/12/03 00:52:48;;;;;;;42.70;23.15;;;;;;;-0.19;100.00;101919.84;5075455;28;20036;-74
2023/12/03 00:55:13;;;;;;;45.05;25.55;;;;;;;-0.16;100.00;101919.06;5093228;28;20020;-74
2023/12/03 00:57:39;;;;;;;39.63;19.85;;;;;;;-0.14;100.00;101920.91;5093167;28;20375;-74
2023/12/03 01:00:05;;;;;;;45.72;23.92;;;;;;;-0.12;100.00;101926.19;5074974;28;20139;-74
2023/12/03 01:02:31;;;;;;;49.33;23.52;;;;;;;-0.09;100.00;101916.78;5093053;28;20036;-74
2023/12/03 01:04:56;;;;;;;46.78;23.77;;;;;;;-0.10;100.00;101917.63;5092997;28;20085;-74
2023/12/03 01:07:22;;;;;;;46.20;22.35;;;;;;;-0.09;100.00;101921.09;5078114;28;20401;-74
2023/12/03 01:09:47;;;;;;;41.50;22.77;;;;;;;-0.10;100.00;101919.31;5063562;28;20111;-74
2023/12/03 01:12:16;;;;;;;38.72;21.23;;;;;;;-0.08;100.00;101926.34;5074801;28;20028;-74
2023/12/03 01:14:41;;;;;;;42.72;21.73;;;;;;;-0.07;100.00;101925.53;5082218;28;20044;-74
2023/12/03 01:17:06;;;;;;;42.05;22.80;;;;;;;-0.04;100.00;101932.56;5092818;28;20020;-74
2023/12/03 01:19:32;;;;;;;40.67;22.70;;;;;;;-0.05;100.00;101933.38;5092978;28;20515;-74
2023/12/03 01:21:57;;;;;;;42.80;22.23;;;;;;;-0.03;100.00;101934.34;5073655;28;20120;-74
2023/12/03 01:24:23;;;;;;;39.65;18.63;;;;;;;0.00;100.00;101937.09;5074477;28;20041;-74
2023/12/03 01:26:49;;;;;;;34.22;19.35;;;;;;;0.04;100.00;101943.28;5076300;28;20390;-74
2023/12/03 01:29:24;;;;;;;34.20;19.00;;;;;;;0.04;100.00;101935.47;5066591;28;20089;-74
2023/12/03 01:31:49;;;;;;;38.08;21.60;;;;;;;0.03;100.00;101934.59;5092484;28;20035;-74
2023/12/03 01:34:14;;;;;;;36.33;20.10;;;;;;;0.05;100.00;101939.84;5074994;28;20028;-74
2023/12/03 01:36:40;;;;;;;28.67;16.90;;;;;;;0.03;100.00;101934.59;5059214;28;20341;-74
2023/12/03 01:39:05;;;;;;;37.53;20.02;;;;;;;0.03;100.00;101936.31;5074068;28;20185;-74
2023/12/03 01:41:31;;;;;;;32.47;18.42;;;;;;;0.05;100.00;101935.53;5092227;28;20035;-74
2023/12/03 01:43:56;;;;;;;35.58;18.85;;;;;;;0.05;100.00;101934.63;5096776;28;20444;-74
2023/12/03 01:46:22;;;;;;;32.33;19.75;;;;;;;0.05;100.00;101938.16;5094311;28;20043;-74
2023/12/03 01:48:49;;;;;;;35.53;22.67;;;;;;;0.02;100.00;101944.94;5092308;28;20043;-73
2023/12/03 01:51:14;;;;;;;31.77;18.42;;;;;;;0.03;100.00;101947.63;5073700;28;20467;-74
2023/12/03 01:53:42;;;;;;;32.10;19.40;;;;;;;-0.01;100.00;101946.59;5073824;28;20026;-74
2023/12/03 01:56:09;;;;;;;38.40;22.27;;;;;;;-0.05;100.00;101947.31;5092249;28;20072;-73
2023/12/03 01:58:35;;;;;;;30.33;18.02;;;;;;;-0.04;100.00;101953.41;5091761;28;20430;-73
2023/12/03 02:01:00;;;;;;;32.67;18.63;;;;;;;-0.04;100.00;101949.09;5091742;28;20067;-74
2023/12/03 02:03:26;;;;;;;30.92;18.02;;;;;;;-0.01;100.00;101943.97;5073852;28;20123;-73
2023/12/03 02:06:05;;;;;;;35.33;19.80;;;;;;;-0.02;100.00;101956.97;5073550;28;20054;-73
2023/12/03 02:08:31;;;;;;;30.48;18.08;;;;;;;-0.02;100.00;101954.38;5085440;28;20024;-73
2023/12/03 02:10:58;;;;;;;36.33;18.73;;;;;;;-0.04;100.00;101956.91;5092188;28;20032;-73
2023/12/03 02:13:24;;;;;;;30.83;15.73;;;;;;;-0.03;100.00;101945.63;5101322;28;20038;-74
2023/12/03 02:15:50;;;;;;;32.35;19.02;;;;;;;-0.10;100.00;101945.34;5093998;28;20047;-73
2023/12/03 02:18:15;;;;;;;31.23;17.92;;;;;;;-0.11;100.00;101946.19;5073502;28;20044;-73
2023/12/03 02:20:41;;;;;;;26.48;16.85;;;;;;;-0.12;100.00;101952.22;5091813;28;20043;-74
2023/12/03 02:23:07;;;;;;;33.40;18.65;;;;;;;-0.17;100.00;101956.34;5091610;28;20068;-74
2023/12/03 02:25:33;;;;;;;32.08;19.15;;;;;;;-0.14;100.00;101956.47;5078788;28;20075;-74
2023/12/03 02:27:58;;;;;;;33.03;20.00;;;;;;;-0.20;100.00;101954.50;5091759;28;20688;-74
2023/12/03 02:30:24;;;;;;;29.98;16.15;;;;;;;-0.23;100.00;101962.19;5091810;28;20044;-75
2023/12/03 02:32:49;;;;;;;30.30;19.88;;;;;;;-0.25;100.00;101963.84;5095013;28;20024;-74
2023/12/03 02:35:15;;;;;;;32.40;18.30;;;;;;;-0.27;100.00;101962.91;5112505;28;20039;-73
2023/12/03 02:37:40;;;;;;;29.33;17.55;;;;;;;-0.30;100.00;101975.78;5108425;28;20035;-74
2023/12/03 02:40:07;;;;;;;32.33;15.82;;;;;;;-0.34;100.00;101968.69;5079461;28;20065;-73
2023/12/03 02:42:32;;;;;;;27.45;15.23;;;;;;;-0.36;100.00;101962.53;5109337;28;20039;-74
2023/12/03 02:44:58;;;;;;;29.23;17.92;;;;;;;-0.39;100.00;101970.22;5086371;28;20382;-74
2023/12/03 02:47:24;;;;;;;29.63;17.67;;;;;;;-0.44;100.00;101962.22;5111989;28;20101;-74
2023/12/03 02:49:50;;;;;;;26.00;13.20;;;;;;;-0.45;100.00;101963.91;5111904;28;20035;-74
2023/12/03 02:52:15;;;;;;;34.35;19.08;;;;;;;-0.49;100.00;101967.25;5099831;28;20036;-75
2023/12/03 02:54:40;;;;;;;32.42;19.33;;;;;;;-0.50;100.00;101962.84;5091547;28;20088;-74
2023/12/03 02:57:06;;;;;;;36.33;19.40;;;;;;;-0.51;100.00;101965.41;5076812;28;20070;-74
2023/12/03 02:59:31;;;;;;;36.38;18.55;;;;;;;-0.56;100.00;101970.41;5076887;28;20032;-74
2023/12/03 03:01:57;;;;;;;36.22;18.98;;;;;;;-0.57;100.00;101967.72;5093662;28;20036;-74
2023/12/03 03:04:23;;;;;;;40.75;19.58;;;;;;;-0.67;100.00;101950.84;5111978;28;20119;-74
2023/12/03 03:06:48;;;;;;;41.47;20.88;;;;;;;-0.58;100.00;101968.56;5109313;28;20169;-74
2023/12/03 03:09:14;;;;;;;38.97;21.55;;;;;;;-0.58;100.00;101963.38;5076633;28;20051;-74
2023/12/03 03:11:39;;;;;;;38.10;21.33;;;;;;;-0.58;100.00;101966.84;5111760;28;20034;-74
2023/12/03 03:14:05;;;;;;;40.55;20.88;;;;;;;-0.59;100.00;101962.50;5089730;28;20032;-75
2023/12/03 03:16:30;;;;;;;36.55;20.42;;;;;;;-0.59;100.00;101967.69;5111673;28;20509;-74
2023/12/03 03:18:55;;;;;;;43.90;22.10;;;;;;;-0.58;100.00;101972.06;5111898;28;20039;-75
2023/12/03 03:21:21;;;;;;;39.70;22.23;;;;;;;-0.59;100.00;101962.50;5076002;28;20510;-74
2023/12/03 03:23:47;;;;;;;38.00;20.30;;;;;;;-0.60;100.00;101970.22;5111668;28;20134;-78
2023/12/03 03:26:13;;;;;;;39.92;22.15;;;;;;;-0.61;100.00;101964.13;5101915;28;20123;-79
2023/12/03 03:28:38;;;;;;;40.88;19.85;;;;;;;-0.64;100.00;101956.22;5111845;28;20043;-78
2023/12/03 03:31:04;;;;;;;36.78;17.80;;;;;;;-0.65;100.00;101957.88;5111735;28;20120;-79
2023/12/03 03:33:29;;;;;;;32.92;18.70;;;;;;;-0.67;100.00;101963.84;5111775;28;20035;-79
2023/12/03 03:35:54;;;;;;;22.95;12.98;;;;;;;-0.70;100.00;101962.00;5093640;28;20039;-79
2023/12/03 03:38:20;;;;;;;37.45;20.80;;;;;;;-0.73;100.00;101959.28;5111555;28;20055;-79
2023/12/03 03:40:46;;;;;;;37.13;18.55;;;;;;;-0.74;100.00;101962.72;5093382;28;20043;-78
2023/12/03 03:43:11;;;;;;;34.97;17.48;;;;;;;-0.72;100.00;101973.19;5093159;28;20050;-78
2023/12/03 03:45:37;;;;;;;32.65;17.13;;;;;;;-0.72;100.00;101970.56;5094248;28;20049;-79
2023/12/03 03:48:03;;;;;;;30.58;16.95;;;;;;;-0.70;100.00;101974.13;5115326;28;20032;-79
2023/12/03 03:50:28;;;;;;;28.13;15.80;;;;;;;-0.73;100.00;101961.91;5115389;28;20035;-79
2023/12/03 03:52:54;;;;;;;33.58;17.30;;;;;;;-0.75;100.00;101965.25;5096802;28;20450;-79
2023/12/03 03:55:19;;;;;;;31.52;18.33;;;;;;;-0.75;100.00;101962.66;5114986;28;20055;-79
2023/12/03 03:57:45;;;;;;;35.45;18.10;;;;;;;-0.78;100.00;101968.63;5079782;28;20137;-78
2023/12/03 04:00:11;;;;;;;33.80;17.63;;;;;;;-0.81;100.00;101978.00;5115024;28;20111;-79
2023/12/03 04:02:40;;;;;;;32.97;17.42;;;;;;;-0.82;100.00;101979.69;5115000;28;20046;-79
2023/12/03 04:05:07;;;;;;;39.17;19.17;;;;;;;-0.85;100.00;101982.19;5096560;28;20039;-79
2023/12/03 04:07:33;;;;;;;31.55;17.35;;;;;;;-0.90;100.00;101984.59;5109146;28;20020;-79
2023/12/03 04:09:58;;;;;;;34.13;18.23;;;;;;;-0.91;100.00;101981.94;5090505;28;20030;-79
2023/12/03 04:12:24;;;;;;;32.22;16.52;;;;;;;-0.94;100.00;101977.50;5114951;28;20043;-79
2023/12/03 04:14:49;;;;;;;31.70;16.65;;;;;;;-0.96;100.00;101976.53;5058568;28;20036;-79
2023/12/03 04:17:15;;;;;;;32.78;16.77;;;;;;;-0.99;100.00;101979.00;5075351;28;20043;-78
2023/12/03 04:19:40;;;;;;;31.55;17.73;;;;;;;-1.02;100.00;101976.25;5106620;28;20036;-78
2023/12/03 04:22:05;;;;;;;34.58;18.48;;;;;;;-1.03;100.00;101982.28;5059964;28;20055;-79
2023/12/03 04:24:31;;;;;;;31.73;15.68;;;;;;;-1.03;100.00;101969.28;5077075;28;20098;-78
2023/12/03 04:26:56;;;;;;;41.60;19.48;;;;;;;-1.05;100.00;101977.84;5095559;28;20061;-78
2023/12/03 04:29:25;;;;;;;33.92;18.08;;;;;;;-1.08;100.00;101981.19;5094104;28;20096;-78
2023/12/03 04:31:51;;;;;;;32.67;17.15;;;;;;;-1.11;100.00;101997.53;5077299;28;20020;-78
2023/12/03 04:34:16;;;;;;;35.90;16.45;;;;;;;-1.13;100.00;101988.78;5078170;28;20105;-79
2023/12/03 04:36:43;;;;;;;38.20;18.55;;;;;;;-1.15;100.00;101990.41;5079869;28;20015;-79
2023/12/03 04:39:09;;;;;;;33.45;18.17;;;;;;;-1.18;100.00;101997.22;5076139;28;20079;-78
2023/12/03 04:41:35;;;;;;;31.90;17.73;;;;;;;-1.20;100.00;101993.66;5060154;28;20063;-78
2023/12/03 04:44:01;;;;;;;31.40;16.77;;;;;;;-1.24;100.00;101997.81;5105342;28;20016;-78
2023/12/03 04:46:26;;;;;;;36.70;17.80;;;;;;;-1.26;100.00;101995.97;5094248;28;20398;-79
2023/12/03 04:48:52;;;;;;;32.63;16.20;;;;;;;-1.30;100.00;101998.44;5098345;28;20066;-78
2023/12/03 04:51:17;;;;;;;37.63;19.42;;;;;;;-1.34;100.00;101998.22;5076751;28;20119;-78
2023/12/03 04:53:42;;;;;;;32.88;17.23;;;;;;;-1.38;100.00;102006.72;5078052;28;20423;-78
2023/12/03 04:56:08;;;;;;;35.40;16.73;;;;;;;-1.43;100.00;101998.72;5103756;28;20043;-78
2023/12/03 04:58:34;;;;;;;36.92;18.60;;;;;;;-1.46;100.00;102005.44;5089168;28;20040;-78
2023/12/03 05:00:59;;;;;;;37.47;18.58;;;;;;;-1.49;100.00;102005.31;5087723;28;20402;-78
2023/12/03 05:03:25;;;;;;;32.90;16.58;;;;;;;-1.50;100.00;102001.84;5099099;28;20043;-78
2023/12/03 05:05:51;;;;;;;30.98;15.35;;;;;;;-1.48;100.00;102007.09;5087243;28;20085;-79
2023/12/03 05:08:17;;;;;;;36.45;18.08;;;;;;;-1.52;100.00;102008.66;5108587;28;20043;-78
2023/12/03 05:10:43;;;;;;;38.92;17.95;;;;;;;-1.57;100.00;102008.44;5094672;28;20043;-79
2023/12/03 05:13:09;;;;;;;31.95;16.50;;;;;;;-1.62;100.00;102006.47;5107340;28;20032;-78
2023/12/03 05:15:34;;;;;;;35.75;18.10;;;;;;;-1.65;100.00;102025.41;5095474;28;20036;-78
2023/12/03 05:18:00;;;;;;;35.38;17.85;;;;;;;-1.65;100.00;102016.72;5074881;28;20031;-78
2023/12/03 05:20:25;;;;;;;39.00;17.88;;;;;;;-1.65;100.00;102014.13;5093148;28;20394;-78
2023/12/03 05:22:53;;;;;;;37.55;18.05;;;;;;;-1.62;100.00;102019.47;5093009;28;20036;-78
2023/12/03 05:25:19;;;;;;;36.17;17.77;;;;;;;-1.64;100.00;102010.69;5076415;28;20498;-78
2023/12/03 05:27:45;;;;;;;33.60;16.48;;;;;;;-1.66;100.00;102008.00;5072739;28;20037;-79
2023/12/03 05:30:13;;;;;;;28.55;13.52;;;;;;;-1.65;100.00;102009.81;5072657;28;20032;-78
2023/12/03 05:32:40;;;;;;;40.13;18.85;;;;;;;-1.67;100.00;102011.44;5071393;28;20128;-78
2023/12/03 05:35:05;;;;;;;37.13;17.63;;;;;;;-1.67;100.00;102019.22;5072679;28;20021;-78
2023/12/03 05:37:31;;;;;;;36.92;18.95;;;;;;;-1.69;100.00;102019.97;5078622;28;20520;-79
2023/12/03 05:39:57;;;;;;;36.15;19.65;;;;;;;-1.74;100.00;102023.25;5070784;28;20451;-78
2023/12/03 05:42:25;;;;;;;41.35;19.85;;;;;;;-1.71;100.00;102027.69;5074873;28;20035;-78
2023/12/03 05:44:50;;;;;;;34.35;18.27;;;;;;;-1.76;100.00;102017.09;5088701;28;20036;-78
2023/12/03 05:47:16;;;;;;;41.03;18.23;;;;;;;-1.78;100.00;102023.03;5077087;28;20395;-78
2023/12/03 05:49:42;;;;;;;43.33;21.95;;;;;;;-1.82;100.00;102027.19;5071157;28;20488;-79
2023/12/03 05:52:07;;;;;;;38.97;19.45;;;;;;;-1.83;100.00;102030.63;5074528;28;20438;-79
2023/12/03 05:54:33;;;;;;;44.20;20.08;;;;;;;-1.86;100.00;102037.34;5067360;28;20032;-78
2023/12/03 05:56:58;;;;;;;39.50;20.90;;;;;;;-1.89;100.00;102029.44;5072989;28;20037;-78
2023/12/03 05:59:25;;;;;;;40.63;19.55;;;;;;;-1.92;100.00;102043.16;5072237;28;20039;-78
2023/12/03 06:01:51;;;;;;;41.38;19.70;;;;;;;-1.96;100.00;102038.63;5071969;28;20101;-78
2023/12/03 06:04:17;;;;;;;39.40;21.02;;;;;;;-1.98;100.00;102038.56;5072091;28;20071;-79
2023/12/03 06:06:43;;;;;;;35.75;19.17;;;;;;;-1.99;100.00;102043.66;5072423;28;20032;-78
2023/12/03 06:09:09;;;;;;;43.17;20.90;;;;;;;-2.04;100.00;102034.78;5081833;28;20555;-78
2023/12/03 06:11:35;;;;;;;43.67;21.10;;;;;;;-2.04;100.00;102040.84;5070438;28;20430;-78
2023/12/03 06:14:02;;;;;;;47.00;22.67;;;;;;;-2.05;100.00;102044.28;5070869;28;20066;-78
2023/12/03 06:16:27;;;;;;;46.58;22.38;;;;;;;-2.06;100.00;102042.47;5037232;28;20048;-78
2023/12/03 06:18:53;;;;;;;46.13;20.92;;;;;;;-2.03;100.00;102052.13;5070815;28;20044;-78
2023/12/03 06:21:18;;;;;;;45.20;21.63;;;;;;;-2.05;100.00;102045.94;5070534;28;20483;-78
2023/12/03 06:23:44;;;;;;;45.03;22.48;;;;;;;-2.08;100.00;102048.41;5070653;28;20048;-78
2023/12/03 06:26:09;;;;;;;42.35;20.50;;;;;;;-2.10;100.00;102056.13;5079575;28;20029;-78
2023/12/03 06:28:35;;;;;;;41.55;20.90;;;;;;;-2.14;100.00;102056.78;5071739;28;20045;-78
2023/12/03 06:31:01;;;;;;;40.63;20.15;;;;;;;-2.16;100.00;102056.69;5071737;28;20562;-78
2023/12/03 06:33:26;;;;;;;45.13;20.38;;;;;;;-2.18;100.00;102060.03;5071934;28;20486;-78
2023/12/03 06:35:55;;;;;;;45.03;19.98;;;;;;;-2.21;100.00;102063.38;5071535;28;20384;-78
2023/12/03 06:38:20;;;;;;;43.13;18.33;;;;;;;-2.21;100.00;102065.97;5071560;28;20033;-78
2023/12/03 06:40:46;;;;;;;41.03;21.80;;;;;;;-2.21;100.00;102059.91;5070167;28;20098;-78
2023/12/03 06:43:11;;;;;;;41.17;20.33;;;;;;;-2.24;100.00;102052.84;5064520;28;20123;-78
2023/12/03 06:45:37;;;;;;;45.22;20.45;;;;;;;-2.20;100.00;102044.41;5076647;28;20028;-78
2023/12/03 06:48:03;;;;;;;37.90;17.42;;;;;;;-2.19;100.00;102053.97;5074681;28;20032;-78
2023/12/03 06:50:29;;;;;;;36.90;17.83;;;;;;;-2.18;100.00;102044.47;5078965;28;20363;-78
2023/12/03 06:52:54;;;;;;;43.60;20.70;;;;;;;-2.16;100.00;102045.44;5076212;28;20027;-78
2023/12/03 06:55:20;;;;;;;41.60;19.60;;;;;;;-2.19;100.00;102046.19;5071761;28;20474;-78
2023/12/03 06:57:45;;;;;;;38.13;19.13;;;;;;;-2.20;100.00;102041.81;5081925;28;20043;-79
2023/12/03 07:00:11;;;;;;;37.20;18.23;;;;;;;-2.22;100.00;102053.81;5084527;28;20062;-78
2023/12/03 07:02:37;;;;;;;44.55;19.77;;;;;;;-2.24;100.00;102045.06;5085103;28;20158;-79
2023/12/03 07:05:02;;;;;;;41.90;19.75;;;;;;;-2.24;100.00;102047.66;5087204;28;20042;-79
2023/12/03 07:07:29;;;;;;;37.22;18.10;;;;;;;-2.25;100.00;102053.69;5084141;28;20036;-78
2023/12/03 07:09:55;;;;;;;39.08;18.50;;;;;;;-2.31;100.00;102048.16;5078982;28;20036;-78
2023/12/03 07:12:20;;;;;;;44.10;19.88;;;;;;;-2.29;100.00;102043.94;5072683;28;20043;-78
2023/12/03 07:14:45;;;;;;;34.75;17.10;;;;;;;-2.29;100.00;102040.47;5073623;28;20036;-78
2023/12/03 07:17:11;;;;;;;38.58;18.83;;;;;;;-2.28;100.00;102045.72;5057084;28;20375;-78
2023/12/03 07:19:36;;;;;;;42.83;17.80;;;;;;;-2.28;100.00;102050.91;5081182;28;20043;-78
2023/12/03 07:22:02;;;;;;;39.17;18.50;;;;;;;-2.29;100.00;102049.13;5080474;28;20043;-78
2023/12/03 07:24:27;;;;;;;38.47;18.77;;;;;;;-2.28;100.00;102053.50;5098368;28;20142;-78
2023/12/03 07:26:53;;;;;;;40.72;18.42;;;;;;;-2.29;100.00;102056.91;5076986;28;20035;-78
2023/12/03 07:29:19;;;;;;;41.35;19.48;;;;;;;-2.30;100.00;102047.38;5106764;28;20115;-78
2023/12/03 07:31:44;;;;;;;39.22;18.17;;;;;;;-2.28;100.00;102056.09;5080451;28;20449;-78
2023/12/03 07:34:10;;;;;;;38.97;18.30;;;;;;;-2.23;100.00;102057.22;5077142;28;20387;-78
2023/12/03 07:36:35;;;;;;;41.60;17.73;;;;;;;-2.22;100.00;102052.94;5095087;28;20123;-78
2023/12/03 07:39:01;;;;;;;40.50;19.17;;;;;;;-2.23;100.00;102059.81;5075582;28;20040;-78
2023/12/03 07:41:26;;;;;;;43.05;19.77;;;;;;;-2.23;100.00;102058.91;5095639;28;20082;-78
2023/12/03 07:43:52;;;;;;;38.72;18.58;;;;;;;-2.24;100.00;102063.22;5107368;28;20097;-78
2023/12/03 07:46:18;;;;;;;36.08;18.02;;;;;;;-2.23;100.00;102064.09;5108888;28;20036;-78
2023/12/03 07:48:44;;;;;;;35.45;17.20;;;;;;;-2.24;100.00;102065.81;5085512;28;20180;-78
2023/12/03 07:51:11;;;;;;;35.92;17.48;;;;;;;-2.26;100.00;102059.66;5103164;28;20051;-78
2023/12/03 07:53:37;;;;;;;34.70;17.67;;;;;;;-2.24;100.00;102063.22;5111036;28;20030;-78
2023/12/03 07:56:03;;;;;;;38.83;17.85;;;;;;;-2.23;100.00;102069.31;5080637;28;20486;-78
2023/12/03 07:58:29;;;;;;;35.53;17.92;;;;;;;-2.21;100.00;102065.97;5077139;28;20040;-78
2023/12/03 08:00:54;;;;;;;38.38;16.95;;;;;;;-2.20;100.00;102069.44;5094595;28;20055;-79
2023/12/03 08:03:20;;;;;;;41.80;17.88;;;;;;;-2.21;100.00;102065.97;5073785;28;20036;-79
2023/12/03 08:05:45;;;;;;;35.53;17.58;;;;;;;-2.18;100.00;102065.22;5076586;28;20098;-78
2023/12/03 08:08:11;;;;;;;37.35;16.70;;;;;;;-2.15;100.00;102065.41;5080546;28;20441;-79
2023/12/03 08:10:36;;;;;;;34.50;18.00;;;;;;;-2.11;100.00;102067.31;5105923;28;20474;-79
2023/12/03 08:13:02;;;;;;;40.42;18.50;;;;;;;-2.08;100.00;102075.25;5083512;28;20032;-80
2023/12/03 08:15:27;;;;;;;36.50;18.10;;;;;;;-2.07;100.00;102073.56;5094111;28;20513;-78
2023/12/03 08:17:52;;;;;;;34.28;16.75;;;;;;;-2.04;100.00;102071.13;5094819;28;20388;-79
2023/12/03 08:20:18;;;;;;;43.15;17.30;;;;;;;-2.03;100.00;102089.38;5101501;28;20436;-79
2023/12/03 08:22:44;;;;;;;39.08;17.60;;;;;;;-1.99;100.00;102090.41;5065862;28;20060;-79
2023/12/03 08:25:09;;;;;;;38.15;16.55;;;;;;;-1.92;100.00;102094.19;5080573;28;20051;-78
2023/12/03 08:27:35;;;;;;;36.72;17.73;;;;;;;-1.87;100.00;102091.00;5103789;28;20050;-79
2023/12/03 08:30:01;;;;;;;37.22;17.98;;;;;;;-1.80;100.00;102094.78;5068007;28;20042;-79
2023/12/03 08:32:26;;;;;;;35.92;16.92;;;;;;;-1.77;100.00;102088.03;5075335;28;20475;-79
2023/12/03 08:34:52;;;;;;;40.58;18.15;;;;;;;-1.70;100.00;102083.16;5076769;28;20046;-78
2023/12/03 08:37:17;;;;;;;36.13;17.23;;;;;;;-1.69;100.00;102083.19;5094480;28;20036;-79
2023/12/03 08:39:43;;;;;;;33.90;17.13;;;;;;;-1.62;100.00;102090.47;5059807;28;20044;-78
2023/12/03 08:42:08;;;;;;;33.17;15.80;;;;;;;-1.60;100.00;102086.25;5076921;28;20079;-78
2023/12/03 08:44:34;;;;;;;35.15;17.83;;;;;;;-1.58;100.00;102092.41;5104418;28;20128;-78
2023/12/03 08:46:59;;;;;;;37.83;16.10;;;;;;;-1.58;100.00;102097.59;5094929;28;20047;-79
2023/12/03 08:49:25;;;;;;;36.08;17.23;;;;;;;-1.56;100.00;102105.44;5083791;28;20036;-79
2023/12/03 08:51:51;;;;;;;35.53;15.80;;;;;;;-1.52;100.00;102104.78;5098918;28;20482;-79
2023/12/03 08:54:16;;;;;;;28.30;14.55;;;;;;;-1.49;100.00;102110.13;5075171;28;20039;-79
2023/12/03 08:56:43;;;;;;;34.83;16.80;;;;;;;-1.47;100.00;102111.09;5089794;28;20036;-79
2023/12/03 08:59:09;;;;;;;40.50;19.08;;;;;;;-1.41;100.00;102103.59;5114063;28;20088;-79
2023/12/03 09:01:34;;;;;;;37.72;17.02;;;;;;;-1.36;100.00;102106.38;5089405;28;20036;-78
2023/12/03 09:03:59;;;;;;;33.97;15.68;;;;;;;-1.27;100.00;102114.63;5086174;28;20043;-78
2023/12/03 09:06:25;;;;;;;37.72;18.55;;;;;;;-1.22;100.00;102109.66;5079095;28;20071;-78
2023/12/03 09:08:51;;;;;;;34.67;17.63;;;;;;;-1.17;100.00;102108.16;5107541;28;20043;-78
2023/12/03 09:11:17;;;;;;;38.75;17.83;;;;;;;-1.13;100.00;102105.75;5084759;28;20047;-78
2023/12/03 09:13:42;;;;;;;33.88;16.70;;;;;;;-1.06;100.00;102106.94;5107025;28;20067;-78
2023/12/03 09:16:08;;;;;;;28.40;14.80;;;;;;;-1.04;100.00;102107.88;5063602;28;20072;-78
2023/12/03 09:18:38;;;;;;;31.80;14.40;;;;;;;-0.97;100.00;102115.13;5102897;28;20074;-78
2023/12/03 09:21:06;;;;;;;26.35;12.68;;;;;;;-0.93;100.00;102118.78;5100747;28;20036;-78
2023/12/03 09:23:33;;;;;;;36.17;17.05;;;;;;;-0.93;100.00;102119.69;5099966;28;20040;-78
2023/12/03 09:26:00;;;;;;;33.67;16.85;;;;;;;-0.93;100.00;102114.47;5071416;28;20579;-78
2023/12/03 09:28:26;;;;;;;33.20;17.02;;;;;;;-0.91;100.00;102111.97;5111027;28;20453;-78
2023/12/03 09:30:51;;;;;;;32.08;14.57;;;;;;;-0.89;100.00;102121.59;5092994;28;20042;-78
2023/12/03 09:33:17;;;;;;;33.05;14.85;;;;;;;-0.89;100.00;102113.81;5105179;28;20048;-78
2023/12/03 09:35:42;;;;;;;34.55;17.25;;;;;;;-0.89;100.00;102106.00;5076415;28;20024;-78
2023/12/03 09:38:08;;;;;;;32.95;15.98;;;;;;;-0.86;100.00;102102.66;5095412;28;20059;-78
2023/12/03 09:40:33;;;;;;;34.47;15.82;;;;;;;-0.82;100.00;102101.06;5079292;28;20100;-78
2023/12/03 09:43:04;;;;;;;31.70;15.90;;;;;;;-0.81;100.00;102103.75;5085857;28;20410;-78
2023/12/03 09:45:31;;;;;;;33.22;15.95;;;;;;;-0.74;100.00;102099.69;5111466;28;20047;-78
2023/12/03 09:48:01;;;;;;;34.97;16.17;;;;;;;-0.69;100.00;102096.47;5094872;28;20059;-78
2023/12/03 09:50:29;;;;;;;31.77;16.50;;;;;;;-0.70;100.00;102097.28;5091121;28;20059;-78
2023/12/03 09:52:56;;;;;;;32.03;15.32;;;;;;;-0.71;100.00;102095.53;5107353;28;20105;-79
2023/12/03 09:55:25;;;;;;;31.60;16.17;;;;;;;-0.64;100.00;102096.69;5078963;28;20070;-79
2023/12/03 09:57:54;;;;;;;33.08;16.77;;;;;;;-0.60;100.00;102097.69;5106026;28;20072;-78
2023/12/03 10:00:21;;;;;;;31.48;15.82;;;;;;;-0.58;100.00;102096.06;5101859;28;20032;-79
2023/12/03 10:02:51;;;;;;;31.40;15.57;;;;;;;-0.55;100.00;102097.06;5092996;28;20367;-79
2023/12/03 10:05:16;;;;;;;24.25;14.02;;;;;;;-0.53;100.00;102102.34;5092560;28;20047;-79
2023/12/03 10:07:46;;;;;;;27.63;14.52;;;;;;;-0.51;100.00;102103.31;5081596;28;20039;-79
2023/12/03 10:10:13;;;;;;;29.38;13.70;;;;;;;-0.51;100.00;102099.00;5099684;28;20036;-79
2023/12/03 10:12:44;;;;;;;26.95;14.13;;;;;;;-0.48;100.00;102099.13;5101758;28;20028;-79
2023/12/03 10:15:11;;;;;;;26.52;14.00;;;;;;;-0.48;100.00;102091.31;5086310;28;20063;-79
2023/12/03 10:17:38;;;;;;;30.13;15.93;;;;;;;-0.44;100.00;102090.63;5094431;28;20536;-79
2023/12/03 10:20:21;;;;;;;27.88;14.13;;;;;;;-0.37;100.00;102081.38;5091708;28;20217;-79
2023/12/03 10:22:51;;;;;;;26.92;13.50;;;;;;;-0.40;100.00;102075.13;5073627;28;20032;-79
2023/12/03 10:25:35;;;;;;;29.20;15.23;;;;;;;-0.37;100.00;102085.66;5075869;28;20050;-79
2023/12/03 10:28:04;;;;;;;28.05;13.63;;;;;;;-0.39;100.00;102072.63;5095049;28;20143;-79
2023/12/03 10:30:30;;;;;;;26.13;13.10;;;;;;;-0.37;100.00;102075.25;5093275;28;20038;-79
2023/12/03 10:32:55;;;;;;;29.88;14.95;;;;;;;-0.38;100.00;102071.78;5057024;28;20134;-79
2023/12/03 10:35:22;;;;;;;28.48;14.30;;;;;;;-0.38;100.00;102071.78;5091545;28;20109;-79
2023/12/03 10:37:49;;;;;;;31.80;15.20;;;;;;;-0.33;100.00;102067.66;5091723;28;20051;-79
2023/12/03 10:40:15;;;;;;;26.17;13.43;;;;;;;-0.31;100.00;102067.72;5073771;28;20039;-79
2023/12/03 10:42:41;;;;;;;31.25;14.82;;;;;;;-0.31;100.00;102063.41;5079146;28;20546;-79
2023/12/03 10:45:09;;;;;;;27.30;14.60;;;;;;;-0.30;100.00;102061.69;5109384;28;20092;-79
2023/12/03 10:47:36;;;;;;;24.70;12.88;;;;;;;-0.26;100.00;102054.06;5111792;28;20042;-77
2023/12/03 10:50:05;;;;;;;24.30;12.77;;;;;;;-0.26;100.00;102061.88;5093935;28;20047;-77
2023/12/03 10:52:36;;;;;;;30.40;15.20;;;;;;;-0.25;100.00;102054.94;5093762;28;20097;-80
2023/12/03 10:55:06;;;;;;;28.33;15.52;;;;;;;-0.22;100.00;102052.50;5095795;28;20039;-80
2023/12/03 10:57:34;;;;;;;27.98;14.32;;;;;;;-0.18;100.00;102048.28;5116148;28;20043;-80